Time;durP1;ratioP1;P1;durP2;ratioP2;P2;SDS_P1;SDS_P2;PMS_P1;PMS_P2;Temp;Humidity;BMP_temperature;BMP_pressure;BME280_temperature;BME280_humidity;BME280_pressure;Samples;Min_cycle;Max_cycle;Signal;HPM_P1;HPM_P2
2022/09/17 00:00:37;;;;;;;12.52;3.00;;;11.80;99.90;;;;;;5054670;28;20088;-65
2022/09/17 00:03:03;;;;;;;11.63;2.35;;;11.70;99.90;;;;;;5043580;28;20045;-64
2022/09/17 00:05:29;;;;;;;14.73;2.63;;;11.80;99.90;;;;;;5055780;28;20039;-65
2022/09/17 00:07:55;;;;;;;19.52;3.28;;;11.60;99.90;;;;;;5050158;28;20052;-65
2022/09/17 00:10:22;;;;;;;13.57;2.80;;;11.90;99.90;;;;;;5046184;28;20049;-64
2022/09/17 00:12:48;;;;;;;14.00;3.00;;;11.80;99.90;;;;;;5054782;28;20098;-64
2022/09/17 00:15:14;;;;;;;15.35;3.13;;;11.90;99.90;;;;;;5055681;28;20036;-64
2022/09/17 00:17:40;;;;;;;15.15;2.75;;;12.00;99.90;;;;;;5053965;28;20398;-65
2022/09/17 00:20:10;;;;;;;17.20;2.28;;;12.00;99.90;;;;;;5043572;28;20112;-64
2022/09/17 00:22:37;;;;;;;14.68;2.97;;;11.70;99.90;;;;;;5054827;28;20048;-64
2022/09/17 00:25:04;;;;;;;13.45;3.15;;;11.90;99.90;;;;;;5040995;28;20436;-64
2022/09/17 00:27:30;;;;;;;14.07;2.67;;;11.80;99.90;;;;;;5054236;28;20094;-64
2022/09/17 00:29:56;;;;;;;14.05;3.42;;;11.80;99.90;;;;;;5054286;28;20457;-64
2022/09/17 00:32:22;;;;;;;16.55;2.55;;;11.90;99.90;;;;;;5053947;28;20033;-64
2022/09/17 00:34:50;;;;;;;18.52;2.58;;;11.80;99.90;;;;;;5037504;28;20126;-64
2022/09/17 00:37:17;;;;;;;12.65;2.85;;;11.90;99.90;;;;;;5055112;28;20037;-65
2022/09/17 00:39:42;;;;;;;8.02;2.05;;;11.80;99.90;;;;;;5055269;28;20075;-64
2022/09/17 00:42:13;;;;;;;16.48;3.00;;;11.80;99.90;;;;;;5040969;28;20083;-64
2022/09/17 00:44:43;;;;;;;11.73;2.67;;;11.80;99.90;;;;;;5063252;28;20464;-64
2022/09/17 00:47:37;;;;;;;18.63;3.47;;;11.80;99.90;;;;;;5057186;28;20047;-64
2022/09/17 00:50:16;;;;;;;14.43;2.28;;;11.80;99.90;;;;;;5054353;28;20503;-64
2022/09/17 00:52:44;;;;;;;12.98;2.13;;;11.80;99.90;;;;;;5041288;28;20041;-64
2022/09/17 00:55:22;;;;;;;11.80;2.75;;;11.60;99.90;;;;;;5041314;28;20475;-64
2022/09/17 00:57:50;;;;;;;16.48;3.17;;;11.60;99.90;;;;;;5041470;28;20037;-65
2022/09/17 01:00:17;;;;;;;16.73;3.33;;;11.50;99.90;;;;;;5041092;28;20143;-65
2022/09/17 01:02:43;;;;;;;10.43;2.35;;;11.30;99.90;;;;;;5053841;28;20041;-64
2022/09/17 01:05:10;;;;;;;9.80;2.22;;;11.50;99.90;;;;;;5044349;28;20029;-64
2022/09/17 01:07:58;;;;;;;12.02;2.25;;;11.40;99.90;;;;;;5050324;28;20124;-64
2022/09/17 01:10:48;;;;;;;12.73;2.15;;;11.30;99.90;;;;;;5053741;28;20396;-65
2022/09/17 01:13:35;;;;;;;11.85;2.25;;;11.50;99.90;;;;;;5041115;28;20152;-64
2022/09/17 01:16:24;;;;;;;14.18;3.53;;;11.40;99.90;;;;;;5053607;28;20102;-64
2022/09/17 01:19:28;;;;;;;13.13;2.28;;;11.50;99.90;;;;;;5050487;28;20135;-65
2022/09/17 01:22:12;;;;;;;12.90;2.22;;;11.50;99.90;;;;;;5043524;28;20040;-64
2022/09/17 01:24:58;;;;;;;12.73;2.17;;;11.40;99.90;;;;;;5040257;28;20041;-65
2022/09/17 01:27:38;;;;;;;12.15;2.40;;;11.50;99.90;;;;;;5053056;28;20138;-65
2022/09/17 01:30:39;;;;;;;12.40;2.08;;;11.50;99.90;;;;;;5053106;28;20116;-64
2022/09/17 01:33:16;;;;;;;9.60;2.88;;;11.50;99.90;;;;;;5047212;28;20503;-64
2022/09/17 01:35:55;;;;;;;12.55;1.67;;;11.60;99.90;;;;;;5040683;28;20048;-64
2022/09/17 01:38:31;;;;;;;7.60;1.55;;;11.30;99.90;;;;;;5055567;28;20081;-64
2022/09/17 01:41:20;;;;;;;8.07;1.90;;;11.60;99.90;;;;;;5041710;28;20037;-64
2022/09/17 01:44:05;;;;;;;7.05;1.77;;;11.50;99.90;;;;;;5054941;28;20044;-65
2022/09/17 01:46:46;;;;;;;8.45;1.77;;;11.40;99.90;;;;;;5061385;28;20045;-64
2022/09/17 01:49:14;;;;;;;15.25;2.63;;;11.40;99.90;;;;;;5048791;28;20042;-64
2022/09/17 01:51:44;;;;;;;8.55;1.95;;;11.40;99.90;;;;;;5043924;28;20052;-65
2022/09/17 01:54:35;;;;;;;12.65;1.90;;;11.50;99.90;;;;;;5044846;28;20029;-65
2022/09/17 01:57:03;;;;;;;13.70;2.45;;;11.70;99.90;;;;;;5052852;28;20581;-64
2022/09/17 01:59:35;;;;;;;12.35;2.25;;;11.60;99.90;;;;;;5053864;28;20065;-64
2022/09/17 02:02:07;;;;;;;10.20;1.83;;;11.40;99.90;;;;;;5038979;28;20499;-65
2022/09/17 02:04:47;;;;;;;12.57;1.98;;;11.40;99.90;;;;;;5040202;28;20044;-64
2022/09/17 02:07:22;;;;;;;13.50;2.17;;;11.50;99.90;;;;;;5038254;28;20083;-64
2022/09/17 02:10:00;;;;;;;9.77;1.58;;;11.40;99.90;;;;;;5053727;28;20036;-64
2022/09/17 02:12:37;;;;;;;9.93;2.60;;;11.40;99.90;;;;;;5052014;28;20044;-65
2022/09/17 02:15:08;;;;;;;14.30;2.75;;;11.40;99.90;;;;;;5052220;28;20037;-65
2022/09/17 02:17:53;;;;;;;11.90;2.42;;;11.20;99.90;;;;;;5052083;28;20072;-64
2022/09/17 02:20:24;;;;;;;9.38;1.85;;;11.20;99.90;;;;;;5053409;28;20519;-64
2022/09/17 02:22:56;;;;;;;14.02;2.50;;;11.30;99.90;;;;;;5050576;28;20045;-65
2022/09/17 02:25:41;;;;;;;9.43;2.63;;;11.30;99.90;;;;;;5042945;28;20107;-65
2022/09/17 02:28:41;;;;;;;15.23;2.33;;;11.10;99.90;;;;;;5037788;28;20094;-64
2022/09/17 02:31:08;;;;;;;12.98;1.95;;;11.20;99.90;;;;;;5048332;28;20048;-65
2022/09/17 02:33:35;;;;;;;8.15;1.83;;;11.00;99.90;;;;;;5053080;28;20029;-64
2022/09/17 02:36:01;;;;;;;9.13;2.38;;;11.00;99.90;;;;;;5051957;28;20617;-65
2022/09/17 02:38:29;;;;;;;6.85;1.92;;;11.10;99.90;;;;;;5053000;28;20032;-65
2022/09/17 02:41:07;;;;;;;6.07;1.30;;;11.10;99.90;;;;;;5053281;28;20072;-65
2022/09/17 02:43:52;;;;;;;10.10;1.77;;;11.00;99.90;;;;;;5052729;28;20045;-65
2022/09/17 02:46:27;;;;;;;8.18;1.58;;;11.00;99.90;;;;;;5058185;28;20095;-64
2022/09/17 02:49:07;;;;;;;;;;;11.00;99.90;;;;;;5038764;28;20469;-64
2022/09/17 02:52:10;;;;;;;8.27;1.70;;;10.90;99.90;;;;;;5052845;28;20002;-64
2022/09/17 02:54:46;;;;;;;10.60;1.85;;;10.80;99.90;;;;;;5017732;28;20558;-65
2022/09/17 02:57:28;;;;;;;5.75;1.80;;;10.60;99.90;;;;;;5051022;28;20144;-65
2022/09/17 03:00:12;;;;;;;11.25;2.53;;;10.80;99.90;;;;;;5052569;28;20514;-65
2022/09/17 03:02:46;;;;;;;10.52;2.42;;;10.60;99.90;;;;;;5041147;28;20049;-64
2022/09/17 03:05:13;;;;;;;7.75;1.58;;;10.70;99.90;;;;;;5051362;28;20049;-64
2022/09/17 03:07:39;;;;;;;7.95;1.77;;;10.60;99.90;;;;;;5049118;28;20080;-64
2022/09/17 03:10:05;;;;;;;10.85;1.75;;;10.70;99.90;;;;;;5052674;28;20463;-64
2022/09/17 03:12:31;;;;;;;11.48;1.73;;;10.60;99.90;;;;;;5051379;28;20075;-64
2022/09/17 03:14:57;;;;;;;14.50;1.80;;;;;;;;;;5052524;28;20041;-64
2022/09/17 03:17:23;;;;;;;9.82;2.00;;;10.60;99.90;;;;;;5038773;28;20042;-65
2022/09/17 03:19:48;;;;;;;12.00;1.60;;;10.60;99.90;;;;;;5051448;28;20178;-64
2022/09/17 03:22:14;;;;;;;12.55;3.72;;;10.50;99.90;;;;;;5052609;28;20040;-64
2022/09/17 03:24:39;;;;;;;11.25;2.60;;;10.70;99.90;;;;;;5051298;28;20496;-64
2022/09/17 03:27:05;;;;;;;7.72;1.85;;;10.70;99.90;;;;;;5034772;28;20082;-64
2022/09/17 03:29:30;;;;;;;13.10;2.28;;;10.50;99.90;;;;;;5051207;28;20510;-64
2022/09/17 03:31:57;;;;;;;6.40;1.65;;;;;;;;;;5051410;28;20529;-65
2022/09/17 03:34:23;;;;;;;16.65;2.10;;;10.70;99.90;;;;;;5052382;28;20040;-64
2022/09/17 03:36:49;;;;;;;16.83;2.38;;;10.80;99.90;;;;;;5050933;28;20095;-65
2022/09/17 03:39:14;;;;;;;6.55;1.85;;;10.60;99.90;;;;;;5051111;28;20045;-65
2022/09/17 03:41:40;;;;;;;9.00;2.05;;;10.60;99.90;;;;;;5051422;28;20049;-64
2022/09/17 03:44:05;;;;;;;7.30;1.98;;;10.70;99.90;;;;;;5057003;28;20482;-64
2022/09/17 03:46:31;;;;;;;5.68;1.45;;;;;;;;;;5048678;28;20488;-65
2022/09/17 03:48:57;;;;;;;6.13;1.98;;;10.60;99.90;;;;;;5041457;28;20079;-64
2022/09/17 03:51:23;;;;;;;11.65;2.25;;;10.60;99.90;;;;;;5049948;28;20041;-64
2022/09/17 03:53:48;;;;;;;11.75;2.03;;;10.70;99.90;;;;;;5039353;28;20513;-64
2022/09/17 03:56:14;;;;;;;8.05;1.83;;;10.70;99.90;;;;;;5052451;28;20072;-65
2022/09/17 03:58:39;;;;;;;11.60;2.10;;;10.70;99.90;;;;;;5051322;28;20041;-64
2022/09/17 04:01:05;;;;;;;8.82;2.47;;;10.70;99.90;;;;;;5050769;28;20057;-64
2022/09/17 04:03:31;;;;;;;13.13;2.40;;;10.80;99.90;;;;;;5050734;28;20624;-64
2022/09/17 04:05:57;;;;;;;10.90;2.00;;;10.70;99.90;;;;;;5052413;28;20069;-64
2022/09/17 04:08:23;;;;;;;7.57;1.90;;;10.70;99.90;;;;;;5051111;28;20072;-65
2022/09/17 04:10:50;;;;;;;14.65;1.50;;;10.80;99.90;;;;;;5038000;28;20498;-64
2022/09/17 04:13:17;;;;;;;12.20;2.53;;;10.90;99.90;;;;;;5051998;28;20136;-64
2022/09/17 04:15:43;;;;;;;7.20;1.88;;;10.70;99.90;;;;;;5051933;28;20045;-65
2022/09/17 04:18:09;;;;;;;9.55;2.83;;;10.70;99.90;;;;;;5055011;28;20044;-65
2022/09/17 04:20:35;;;;;;;7.20;1.83;;;10.70;99.90;;;;;;5055575;28;20487;-65
2022/09/17 04:23:01;;;;;;;10.65;1.95;;;10.60;99.90;;;;;;5055540;28;20487;-65
2022/09/17 04:25:26;;;;;;;15.30;3.88;;;10.60;99.90;;;;;;5055802;28;20037;-65
2022/09/17 04:27:52;;;;;;;15.27;2.10;;;10.70;99.90;;;;;;5054225;28;20037;-64
2022/09/17 04:30:17;;;;;;;10.80;2.03;;;10.80;99.90;;;;;;5055135;28;20037;-65
2022/09/17 04:32:44;;;;;;;10.50;1.77;;;;;;;;;;5055412;28;20041;-65
2022/09/17 04:35:10;;;;;;;7.00;1.80;;;10.90;99.90;;;;;;5045526;28;20038;-64
2022/09/17 04:37:36;;;;;;;10.95;2.03;;;10.80;99.90;;;;;;5048779;28;20091;-65
2022/09/17 04:40:02;;;;;;;8.40;1.92;;;10.80;99.90;;;;;;5055619;28;20041;-64
2022/09/17 04:42:27;;;;;;;8.45;1.52;;;10.80;99.90;;;;;;5055453;28;20045;-64
2022/09/17 04:44:53;;;;;;;10.50;2.75;;;10.80;99.90;;;;;;5056530;28;20435;-65
2022/09/17 04:47:19;;;;;;;15.23;1.98;;;10.70;99.90;;;;;;5053972;28;20032;-64
2022/09/17 04:49:44;;;;;;;6.25;1.77;;;10.60;99.90;;;;;;5053762;28;20122;-64
2022/09/17 04:52:10;;;;;;;12.90;1.80;;;10.60;99.90;;;;;;5055018;28;20037;-64
2022/09/17 04:54:35;;;;;;;6.90;1.98;;;10.80;99.90;;;;;;5055007;28;20076;-65
2022/09/17 04:57:01;;;;;;;16.80;2.40;;;10.60;99.90;;;;;;5053992;28;20040;-64
2022/09/17 04:59:27;;;;;;;13.10;1.85;;;;;;;;;;5053978;28;20041;-64
2022/09/17 05:01:52;;;;;;;7.93;1.67;;;10.50;99.90;;;;;;5053380;28;20049;-64
2022/09/17 05:04:18;;;;;;;10.88;2.15;;;10.40;99.90;;;;;;5053564;28;20506;-64
2022/09/17 05:06:43;;;;;;;10.02;2.17;;;10.20;99.90;;;;;;5054950;28;20045;-65
2022/09/17 05:09:09;;;;;;;8.45;1.60;;;10.20;99.90;;;;;;5054721;28;20450;-64
2022/09/17 05:11:35;;;;;;;7.30;1.90;;;10.20;99.90;;;;;;5053302;28;20571;-64
2022/09/17 05:14:00;;;;;;;15.50;2.30;;;10.30;99.90;;;;;;5054834;28;20120;-64
2022/09/17 05:16:26;;;;;;;10.52;2.30;;;10.20;99.90;;;;;;5046181;28;20052;-64
2022/09/17 05:18:51;;;;;;;11.55;1.83;;;10.20;99.90;;;;;;5049160;28;20095;-65
2022/09/17 05:21:20;;;;;;;6.78;1.98;;;10.30;99.90;;;;;;5053242;28;20059;-64
2022/09/17 05:23:46;;;;;;;4.80;1.58;;;10.30;99.90;;;;;;5053243;28;20091;-64
2022/09/17 05:26:12;;;;;;;6.85;2.25;;;10.20;99.90;;;;;;5048017;28;20041;-64
2022/09/17 05:28:38;;;;;;;9.18;2.08;;;10.10;99.90;;;;;;5044053;28;20080;-64
2022/09/17 05:31:03;;;;;;;10.82;1.92;;;10.20;99.90;;;;;;5054340;28;20095;-64
2022/09/17 05:33:29;;;;;;;8.93;2.00;;;;;;;;;;5045440;28;20064;-64
2022/09/17 05:35:55;;;;;;;7.78;1.70;;;10.00;99.90;;;;;;5048196;28;20061;-65
2022/09/17 05:38:20;;;;;;;9.38;1.80;;;10.00;99.90;;;;;;5054165;28;20137;-65
2022/09/17 05:40:47;;;;;;;9.40;2.33;;;10.10;99.90;;;;;;5054409;28;20114;-65
2022/09/17 05:43:14;;;;;;;15.02;2.60;;;10.20;99.90;;;;;;5039991;28;20037;-65
2022/09/17 05:45:40;;;;;;;7.53;1.77;;;10.10;99.90;;;;;;5060876;28;20037;-65
2022/09/17 05:48:08;;;;;;;14.10;2.42;;;10.30;99.90;;;;;;5050816;28;20507;-64
2022/09/17 05:50:34;;;;;;;12.80;2.42;;;10.30;99.90;;;;;;5043565;28;20028;-64
2022/09/17 05:53:11;;;;;;;13.23;2.22;;;10.40;99.90;;;;;;5052451;28;20447;-65
2022/09/17 05:55:37;;;;;;;9.07;1.77;;;10.40;99.90;;;;;;5054036;28;20119;-64
2022/09/17 05:58:10;;;;;;;10.85;1.55;;;10.30;99.90;;;;;;5039938;28;20069;-65
2022/09/17 06:00:36;;;;;;;5.80;1.90;;;10.40;99.90;;;;;;5052376;28;20061;-64
2022/09/17 06:03:01;;;;;;;10.18;1.98;;;10.50;99.90;;;;;;5048294;28;20071;-64
2022/09/17 06:05:27;;;;;;;4.57;1.80;;;10.50;99.90;;;;;;5053520;28;20049;-65
2022/09/17 06:07:53;;;;;;;10.10;1.60;;;10.50;99.90;;;;;;5053911;28;20047;-65
2022/09/17 06:10:18;;;;;;;7.85;1.80;;;10.60;99.90;;;;;;5053776;28;20454;-65
2022/09/17 06:12:44;;;;;;;7.93;1.67;;;10.70;99.90;;;;;;5063007;28;20041;-65
2022/09/17 06:15:13;;;;;;;7.70;1.73;;;10.50;99.90;;;;;;5032344;28;20403;-65
2022/09/17 06:17:39;;;;;;;8.70;1.98;;;10.90;99.90;;;;;;5050679;28;20041;-65
2022/09/17 06:20:05;;;;;;;7.78;1.55;;;10.90;99.90;;;;;;5042899;28;20046;-64
2022/09/17 06:22:31;;;;;;;10.80;2.22;;;11.20;99.90;;;;;;5049723;28;20051;-65
2022/09/17 06:24:58;;;;;;;6.25;2.25;;;11.20;99.90;;;;;;5052117;28;20056;-65
2022/09/17 06:27:29;;;;;;;10.10;2.10;;;11.30;99.90;;;;;;5051905;28;20116;-65
2022/09/17 06:29:55;;;;;;;7.95;1.80;;;11.40;99.90;;;;;;5052100;28;20076;-65
2022/09/17 06:32:20;;;;;;;7.05;1.63;;;11.50;99.90;;;;;;5051985;28;20075;-64
2022/09/17 06:34:47;;;;;;;7.38;1.45;;;11.70;99.90;;;;;;5047821;28;20037;-65
2022/09/17 06:37:12;;;;;;;4.60;1.52;;;11.70;99.90;;;;;;5044995;28;20051;-65
2022/09/17 06:39:38;;;;;;;5.47;1.33;;;11.60;99.90;;;;;;5049753;28;20495;-65
2022/09/17 06:42:05;;;;;;;7.20;1.38;;;11.70;99.90;;;;;;5052050;28;20109;-64
2022/09/17 06:44:30;;;;;;;3.85;1.35;;;11.60;99.90;;;;;;5061150;28;20041;-65
2022/09/17 06:46:56;;;;;;;4.63;1.60;;;11.50;99.90;;;;;;5051646;28;20037;-64
2022/09/17 06:49:21;;;;;;;4.13;1.60;;;11.60;99.90;;;;;;5052885;28;20033;-65
2022/09/17 06:51:47;;;;;;;5.53;1.35;;;11.50;99.90;;;;;;5052766;28;20033;-64
2022/09/17 06:54:12;;;;;;;8.77;1.23;;;11.60;99.90;;;;;;5053055;28;20060;-64
2022/09/17 06:56:38;;;;;;;7.80;2.00;;;11.70;99.90;;;;;;5051548;28;20045;-64
2022/09/17 06:59:03;;;;;;;5.78;1.67;;;11.60;99.90;;;;;;5051847;28;20059;-64
2022/09/17 07:01:29;;;;;;;14.85;1.95;;;11.70;99.90;;;;;;5050990;28;20147;-65
2022/09/17 07:03:54;;;;;;;7.50;1.50;;;11.80;99.90;;;;;;5051515;28;20092;-65
2022/09/17 07:06:20;;;;;;;7.15;1.17;;;11.80;99.90;;;;;;5051578;28;20053;-64
2022/09/17 07:08:46;;;;;;;9.02;1.55;;;;;;;;;;5037373;28;20046;-64
2022/09/17 07:11:12;;;;;;;6.15;1.15;;;11.80;99.90;;;;;;5051246;28;20091;-65
2022/09/17 07:13:38;;;;;;;6.55;1.20;;;11.80;99.90;;;;;;5052834;28;20075;-65
2022/09/17 07:16:05;;;;;;;7.05;1.63;;;12.00;99.90;;;;;;5051755;28;20040;-65
2022/09/17 07:18:31;;;;;;;5.65;1.15;;;11.90;99.90;;;;;;5051371;28;20045;-65
2022/09/17 07:20:59;;;;;;;12.82;5.13;;;12.20;99.90;;;;;;5047663;28;20434;-65
2022/09/17 07:23:26;;;;;;;19.08;10.50;;;12.30;99.90;;;;;;5042346;28;20037;-65
2022/09/17 07:25:54;;;;;;;11.90;5.70;;;12.30;99.90;;;;;;5052396;28;20045;-65
2022/09/17 07:28:21;;;;;;;9.15;1.48;;;12.40;99.90;;;;;;5043202;28;20116;-64
2022/09/17 07:30:47;;;;;;;28.40;21.55;;;12.40;99.90;;;;;;5047063;28;20497;-64
2022/09/17 07:33:21;;;;;;;8.52;2.50;;;12.50;99.90;;;;;;5044772;28;20076;-64
2022/09/17 07:35:58;;;;;;;7.93;4.40;;;12.60;99.90;;;;;;5046598;28;20105;-64
2022/09/17 07:38:25;;;;;;;5.25;3.53;;;12.70;99.90;;;;;;5040028;28;20124;-64
2022/09/17 07:41:03;;;;;;;9.05;1.80;;;12.80;99.90;;;;;;5052630;28;20115;-64
2022/09/17 07:43:31;;;;;;;9.85;1.08;;;12.80;99.90;;;;;;5052506;28;20441;-64
2022/09/17 07:45:58;;;;;;;6.03;1.83;;;12.80;99.90;;;;;;5054382;28;20076;-64
2022/09/17 07:48:24;;;;;;;4.20;1.10;;;12.90;99.90;;;;;;5052316;28;20044;-64
2022/09/17 07:50:50;;;;;;;6.07;1.08;;;12.60;99.90;;;;;;5051954;28;20037;-64
2022/09/17 07:53:16;;;;;;;7.25;1.20;;;12.70;99.90;;;;;;5055668;28;20040;-64
2022/09/17 07:55:42;;;;;;;3.85;0.95;;;;;;;;;;5055407;28;20033;-63
2022/09/17 07:58:08;;;;;;;4.70;1.55;;;;;;;;;;5054161;28;20037;-64
2022/09/17 08:00:34;;;;;;;5.13;1.13;;;12.50;99.90;;;;;;5055258;28;20434;-63
2022/09/17 08:02:59;;;;;;;4.43;1.45;;;12.40;99.90;;;;;;5055760;28;20041;-63
2022/09/17 08:05:26;;;;;;;4.70;1.02;;;12.30;99.90;;;;;;5054909;28;20094;-63
2022/09/17 08:07:53;;;;;;;4.38;0.90;;;12.40;99.90;;;;;;5054705;28;20048;-63
2022/09/17 08:10:21;;;;;;;5.25;0.85;;;12.20;99.90;;;;;;5055469;28;20033;-63
2022/09/17 08:12:54;;;;;;;3.88;1.13;;;12.40;99.90;;;;;;5054100;28;20037;-63
2022/09/17 08:15:20;;;;;;;8.15;1.42;;;12.30;99.90;;;;;;5054702;28;20067;-63
2022/09/17 08:17:46;;;;;;;5.45;1.10;;;12.40;99.90;;;;;;5054706;28;20490;-63
2022/09/17 08:20:13;;;;;;;4.78;1.05;;;12.40;99.90;;;;;;5054427;28;20482;-63
2022/09/17 08:22:39;;;;;;;7.00;1.42;;;12.20;99.90;;;;;;5054777;28;20076;-63
2022/09/17 08:25:06;;;;;;;5.35;1.83;;;12.40;99.90;;;;;;5055774;28;20041;-63
2022/09/17 08:27:32;;;;;;;6.78;1.00;;;12.60;99.90;;;;;;5055332;28;20040;-63
2022/09/17 08:29:57;;;;;;;6.30;1.05;;;12.90;99.90;;;;;;5055405;28;20437;-63
2022/09/17 08:32:24;;;;;;;6.35;0.90;;;12.90;99.90;;;;;;5054091;28;20044;-63
2022/09/17 08:34:49;;;;;;;7.97;1.08;;;13.10;99.90;;;;;;5042986;28;20033;-63
2022/09/17 08:37:15;;;;;;;5.80;1.23;;;13.10;99.90;;;;;;5055620;28;20049;-63
2022/09/17 08:39:41;;;;;;;4.60;0.90;;;13.30;99.90;;;;;;5055214;28;20058;-63
2022/09/17 08:42:21;;;;;;;7.55;1.10;;;13.20;99.90;;;;;;5054166;28;20483;-62
2022/09/17 08:44:47;;;;;;;6.63;1.08;;;13.20;99.90;;;;;;5055612;28;20073;-63
2022/09/17 08:47:25;;;;;;;3.47;1.00;;;13.10;99.90;;;;;;5052327;28;20033;-63
2022/09/17 08:50:06;;;;;;;3.75;0.90;;;12.90;99.90;;;;;;5051514;28;20487;-63
2022/09/17 08:53:10;;;;;;;5.30;1.00;;;12.70;99.90;;;;;;5051973;28;20423;-63
2022/09/17 08:55:57;;;;;;;6.57;2.20;;;12.80;99.90;;;;;;5064800;28;20126;-63
2022/09/17 08:58:43;;;;;;;30.80;12.45;;;13.30;99.90;;;;;;5052421;28;20033;-63
2022/09/17 09:01:50;;;;;;;11.23;2.20;;;15.30;99.90;;;;;;5053592;28;20085;-63
2022/09/17 09:04:31;;;;;;;13.70;4.18;;;15.70;99.90;;;;;;5044488;28;20163;-63
2022/09/17 09:07:06;;;;;;;7.57;2.30;;;16.50;99.90;;;;;;5053162;28;20044;-63
2022/09/17 09:09:47;;;;;;;;;;;16.60;99.90;;;;;;5050269;28;20037;-63
2022/09/17 09:12:21;;;;;;;2.92;0.93;;;16.20;99.90;;;;;;5054160;28;20010;-64
2022/09/17 09:14:53;;;;;;;4.93;1.05;;;16.50;99.90;;;;;;5052984;28;20029;-64
2022/09/17 09:17:24;;;;;;;6.53;1.33;;;16.10;99.90;;;;;;5053494;28;20048;-64
2022/09/17 09:19:52;;;;;;;4.60;0.95;;;15.80;99.90;;;;;;5053312;28;20036;-63
2022/09/17 09:22:21;;;;;;;8.63;2.33;;;15.50;99.90;;;;;;5052915;28;20037;-63
2022/09/17 09:25:17;;;;;;;7.32;1.17;;;15.50;99.90;;;;;;5052986;28;20072;-63
2022/09/17 09:28:28;;;;;;;5.30;1.25;;;15.10;99.90;;;;;;5049740;28;20395;-63
2022/09/17 09:31:22;;;;;;;2.30;0.90;;;14.30;99.90;;;;;;5025883;28;20084;-63
2022/09/17 09:33:49;;;;;;;5.15;0.82;;;14.00;99.90;;;;;;5054329;28;20041;-63
2022/09/17 09:36:20;;;;;;;5.10;1.00;;;13.80;99.90;;;;;;5053925;28;20380;-63
2022/09/17 09:39:04;;;;;;;8.48;2.22;;;13.60;99.90;;;;;;5052817;28;20045;-63
2022/09/17 09:42:13;;;;;;;4.65;0.73;;;13.50;99.90;;;;;;5053138;28;20045;-63
2022/09/17 09:44:38;;;;;;;5.80;2.72;;;13.40;99.90;;;;;;5051652;28;20036;-64
2022/09/17 09:47:44;;;;;;;4.38;0.82;;;13.40;99.90;;;;;;5038080;28;20165;-64
2022/09/17 09:50:42;;;;;;;3.63;1.58;;;13.50;99.90;;;;;;5052811;28;20609;-64
2022/09/17 09:53:52;;;;;;;4.30;1.15;;;13.50;99.90;;;;;;5018193;28;20044;-64
2022/09/17 09:56:18;;;;;;;3.97;1.25;;;;;;;;;;5010271;28;20045;-64
2022/09/17 09:58:43;;;;;;;4.63;1.45;;;13.30;99.90;;;;;;5051922;28;20502;-64
2022/09/17 10:01:21;;;;;;;4.47;2.05;;;13.20;99.90;;;;;;5051670;28;20564;-64
2022/09/17 10:03:50;;;;;;;5.68;2.90;;;13.10;99.90;;;;;;5060595;28;20040;-64
2022/09/17 10:06:17;;;;;;;2.65;1.15;;;13.00;99.90;;;;;;5049512;28;20124;-64
2022/09/17 10:08:48;;;;;;;3.38;1.08;;;13.10;99.90;;;;;;5034972;28;20079;-64
2022/09/17 10:11:22;;;;;;;3.65;1.17;;;13.10;99.90;;;;;;5034072;28;20046;-64
2022/09/17 10:13:48;;;;;;;8.40;3.10;;;13.10;99.90;;;;;;5049571;28;20041;-64
2022/09/17 10:16:23;;;;;;;9.32;3.22;;;13.40;99.90;;;;;;5051506;28;20055;-64
2022/09/17 10:18:50;;;;;;;;;;;13.30;99.90;;;;;;5038915;28;20088;-64
2022/09/17 10:21:31;;;;;;;5.00;1.52;;;13.30;99.90;;;;;;5051081;28;20293;-64
2022/09/17 10:23:57;;;;;;;7.13;1.63;;;13.40;99.90;;;;;;5050298;28;20120;-64
2022/09/17 10:26:35;;;;;;;8.30;2.75;;;13.40;99.90;;;;;;5051753;28;20148;-64
2022/09/17 10:29:16;;;;;;;4.78;1.10;;;13.10;99.90;;;;;;5048092;28;20041;-64
2022/09/17 10:32:00;;;;;;;7.53;1.60;;;13.20;99.90;;;;;;5035863;28;20040;-64
2022/09/17 10:34:26;;;;;;;5.45;1.10;;;;;;;;;;5036218;28;20450;-64
2022/09/17 10:36:52;;;;;;;6.22;0.82;;;13.50;99.90;;;;;;5040603;28;20038;-64
2022/09/17 10:39:32;;;;;;;4.30;1.25;;;13.70;99.90;;;;;;5045740;28;20396;-64
2022/09/17 10:42:10;;;;;;;9.93;2.05;;;13.70;99.90;;;;;;5051209;28;20060;-64
2022/09/17 10:44:37;;;;;;;5.88;1.20;;;13.90;99.90;;;;;;5058079;28;20037;-63
2022/09/17 10:47:12;;;;;;;6.93;0.90;;;14.00;99.90;;;;;;5053163;28;20051;-63
2022/09/17 10:49:45;;;;;;;9.20;1.15;;;14.00;99.90;;;;;;5052993;28;20479;-63
2022/09/17 10:52:13;;;;;;;8.63;1.45;;;14.10;99.90;;;;;;5053195;28;20043;-63
2022/09/17 10:54:53;;;;;;;3.85;1.95;;;14.30;99.90;;;;;;5053032;28;20041;-63
2022/09/17 10:57:37;;;;;;;11.75;2.63;;;14.30;99.90;;;;;;5051924;28;20040;-63
2022/09/17 11:00:17;;;;;;;4.45;1.10;;;14.50;99.90;;;;;;5051059;28;20047;-64
2022/09/17 11:03:00;;;;;;;7.35;1.17;;;14.60;99.90;;;;;;5051563;28;20040;-63
2022/09/17 11:05:59;;;;;;;4.72;1.52;;;14.50;99.90;;;;;;5052734;28;20504;-63
2022/09/17 11:08:51;;;;;;;3.00;0.82;;;14.70;99.90;;;;;;5039312;28;20491;-63
2022/09/17 11:11:34;;;;;;;4.30;1.02;;;14.50;99.90;;;;;;5040640;28;20033;-63
2022/09/17 11:14:09;;;;;;;4.97;0.90;;;14.60;99.90;;;;;;5052689;28;20040;-63
2022/09/17 11:16:39;;;;;;;11.73;1.48;;;14.70;99.90;;;;;;5052648;28;20053;-63
2022/09/17 11:19:29;;;;;;;5.70;1.35;;;14.70;99.90;;;;;;5052487;28;20052;-63
2022/09/17 11:22:09;;;;;;;7.13;1.75;;;14.80;99.90;;;;;;5041308;28;20052;-65
2022/09/17 11:24:54;;;;;;;7.13;1.00;;;14.30;99.90;;;;;;5052737;28;20086;-65
2022/09/17 11:27:32;;;;;;;5.38;1.20;;;14.10;99.90;;;;;;5056194;28;20399;-64
2022/09/17 11:30:14;;;;;;;6.80;1.42;;;13.60;99.90;;;;;;5053982;28;20517;-65
2022/09/17 11:33:17;;;;;;;5.03;0.85;;;13.40;99.90;;;;;;5052689;28;20044;-65
2022/09/17 11:35:55;;;;;;;5.22;1.20;;;13.40;99.90;;;;;;5056355;28;20079;-65
2022/09/17 11:38:29;;;;;;;4.38;1.75;;;13.40;99.90;;;;;;5047886;28;20037;-65
2022/09/17 11:41:09;;;;;;;6.43;0.68;;;13.50;99.90;;;;;;5055166;28;20086;-65
2022/09/17 11:43:38;;;;;;;4.28;1.80;;;13.50;99.90;;;;;;5050909;28;20056;-64
2022/09/17 11:46:16;;;;;;;5.65;1.50;;;13.70;99.90;;;;;;5054965;28;20048;-64
2022/09/17 11:49:05;;;;;;;14.15;1.70;;;14.00;99.90;;;;;;5055305;28;20036;-65
2022/09/17 11:51:39;;;;;;;10.73;1.63;;;14.00;99.90;;;;;;5053781;28;20032;-65
2022/09/17 11:54:28;;;;;;;8.77;1.40;;;14.00;99.90;;;;;;5056064;28;20052;-65
2022/09/17 11:57:21;;;;;;;6.65;1.10;;;13.90;99.90;;;;;;5056424;28;20071;-64
2022/09/17 11:59:50;;;;;;;8.05;1.50;;;13.80;99.90;;;;;;5051486;28;20120;-66
2022/09/17 12:02:22;;;;;;;6.97;1.30;;;13.60;99.90;;;;;;5054755;28;20094;-64
2022/09/17 12:05:05;;;;;;;4.47;1.25;;;13.70;99.90;;;;;;5056089;28;20546;-65
2022/09/17 12:07:44;;;;;;;6.55;1.45;;;13.60;99.90;;;;;;5054781;28;20044;-65
2022/09/17 12:10:28;;;;;;;14.30;3.35;;;13.60;99.90;;;;;;5054222;28;20048;-65
2022/09/17 12:13:33;;;;;;;8.57;1.70;;;13.80;99.90;;;;;;5054478;28;20455;-65
2022/09/17 12:16:20;;;;;;;7.60;1.75;;;13.80;99.90;;;;;;5055649;28;20037;-65
2022/09/17 12:19:04;;;;;;;12.13;2.08;;;13.70;99.90;;;;;;5056051;28;20039;-64
2022/09/17 12:21:36;;;;;;;6.68;1.35;;;13.70;99.90;;;;;;5042533;28;20403;-65
2022/09/17 12:24:22;;;;;;;8.15;1.90;;;13.90;99.90;;;;;;5055798;28;20048;-65
2022/09/17 12:27:09;;;;;;;9.93;1.63;;;14.10;99.90;;;;;;5054320;28;20048;-65
2022/09/17 12:30:02;;;;;;;10.95;1.60;;;14.00;99.90;;;;;;5054095;28;20047;-65
2022/09/17 12:32:40;;;;;;;9.63;1.80;;;14.10;99.90;;;;;;5055459;28;20084;-65
2022/09/17 12:35:14;;;;;;;12.93;1.95;;;14.10;99.90;;;;;;5059280;28;20037;-65
2022/09/17 12:38:09;;;;;;;8.45;1.65;;;14.10;99.90;;;;;;5054351;28;20101;-65
2022/09/17 12:41:03;;;;;;;10.95;2.28;;;14.40;99.90;;;;;;5055315;28;20111;-65
2022/09/17 12:44:06;;;;;;;12.13;2.40;;;14.40;99.90;;;;;;5055346;28;20051;-65
2022/09/17 12:46:48;;;;;;;16.50;3.97;;;14.70;99.90;;;;;;5056809;28;20404;-64
2022/09/17 12:49:46;;;;;;;13.63;2.28;;;14.90;99.90;;;;;;5054884;28;20148;-65
2022/09/17 12:52:51;;;;;;;9.48;1.88;;;14.90;99.90;;;;;;5054662;28;20090;-65
2022/09/17 12:56:01;;;;;;;7.47;1.40;;;14.60;99.90;;;;;;5051321;28;20116;-65
2022/09/17 12:58:41;;;;;;;9.05;2.03;;;14.30;99.90;;;;;;5015856;28;20088;-65
2022/09/17 13:01:37;;;;;;;7.47;1.83;;;14.40;99.90;;;;;;5043094;28;20048;-65
2022/09/17 13:04:32;;;;;;;9.38;1.92;;;14.40;99.90;;;;;;5053233;28;20049;-65
2022/09/17 13:07:22;;;;;;;14.57;2.60;;;14.50;99.90;;;;;;5054993;28;20041;-65
2022/09/17 13:10:03;;;;;;;15.48;2.15;;;14.50;99.90;;;;;;5053542;28;20288;-65
2022/09/17 13:12:43;;;;;;;11.55;2.13;;;14.50;99.90;;;;;;5040641;28;20479;-65
2022/09/17 13:15:44;;;;;;;14.07;2.58;;;14.50;99.90;;;;;;5054801;28;20044;-64
2022/09/17 13:18:27;;;;;;;11.43;2.20;;;14.50;99.90;;;;;;5042265;28;20091;-65
2022/09/17 13:21:13;;;;;;;10.95;1.90;;;14.30;99.90;;;;;;5053718;28;20037;-65